ROMMA est une association bénévole à but non lucratif. Votre soutien est indispensable : ADHERER à ROMMA ou FAIRE un DON

Crest - (26, Drôme)

Vallée de la Drôme (315 m)   Longitude: 5°2' E   Latitude: 44°44' N Station partenaire n°62
 

Détail journalier du     <<     >>

Température Precipitation Humidité Pression Vent Dir Rafale Dir. rafale Ensol.
Heure (°C) (mm) (%) (hPa) (km/h) (km/h) (min)
01:00 1.708610234NNE13NE0
02:00 1.608610235NNO11NE0
03:00 0.808710224NE8NE0
04:00 0.108910213SO6SO0
05:00 -0.209010213SO5SO0
06:00 0.109110214SO8NNE0
07:00 -0.309210204NE6NNE0
08:00 -0.809210204NE13SSO0
09:00 -0.309310205NE15NE1
10:00 -0.109310202NE6NE17
11:00 0.609410202ESE5ESE0
12:00 3.208710203ENE8ENE34
13:00 3.707810194SSO15SO25
14:00 4.108010187SSO16SSO0
15:00 4.107910185SSO11SSO8
16:00 3.808210195SSO13SSO31
17:00 3.208410197SSO16SSO32
18:00 2.308510194SSO13SSO0
19:00 1.908810201SSO8SSE0
20:00 0.909010201E5SSE0
21:00 0.909110202NNE15NNE0
22:00 0.109210203SSE16NNE0
23:00 -0.309210202SSO10SE0
minuit 0.209310211S5SSE0

Graphique du 04-12-2019

 

Serveur OMMA